United States

Ashburn, VA Weather Archive

Below you will find the last 24 hours of weather readings for Ashburn VA

Ashburn VA Today's Weather Data

Observed at: Ashburn, VA

Hour Observerd Temp Pressure Visibility Humidity Dew Point Wind
07:00 Fair 65°F (18.3°C) 102.2 kPa 10 miles 95% 63.5°F (17.5°C) 1 mph NE 45°
06:00 Fair 66°F (18.9°C) 102.17 kPa 10 miles 93% 63.9°F (17.7°C) 1 mph NE 45°
05:00 Fair 67°F (19.4°C) 102.17 kPa 10 miles 90% 64°F (17.8°C) 1 mph NE 51°
04:00 Fair 67°F (19.4°C) 102.17 kPa 10 miles 90% 64°F (17.8°C) 1 mph E 90°
03:00 Fair 70°F (21.1°C) 102.2 kPa 10 miles 84% 64.9°F (18.3°C) 1 mph S 180°
02:00 Fair 71°F (21.7°C) 102.2 kPa 10 miles 82% 65.2°F (18.5°C) 1 mph SSE 158°2 mph
01:00 Fair 72°F (22.2°C) 102.3 kPa 10 miles 78% 64.8°F (18.2°C) 1 mph SW 225°
00:00 Fair 76°F (24.4°C) 102.3 kPa 1.24 miles 71% 65.9°F (18.8°C) 1 mph SSW 208°2 mph
23:00 Partly Cloudy 77°F (25°C) 102.3 kPa 1.24 miles 70% 66.5°F (19.1°C) 1 mph SW 219°2 mph
22:00 Overcast 78°F (25.6°C) 102.3 kPa 1.24 miles 65% 65.3°F (18.5°C) 1 mph SW 230°2 mph
21:00 Mostly Cloudy 80°F (26.7°C) 102.24 kPa 1.24 miles 62% 65.8°F (18.8°C) 1 mph SW 225°2 mph
20:00 Partly Cloudy 83°F (28.3°C) 102.17 kPa 1.24 miles 56% 65.7°F (18.7°C) 1 mph SSE 153°2 mph
19:00 Partly Cloudy 86°F (30°C) 102.17 kPa 10 miles 52% 66.3°F (19.1°C) 1 mph SE 138°2 mph
18:00 Overcast 93°F (33.9°C) 102.13 kPa 10 miles 46% 69.1°F (20.6°C) 1 mph SSE 158°3 mph
17:00 Overcast 93°F (33.9°C) 102.13 kPa 1.24 miles 46% 69.1°F (20.6°C) 1 mph S 174°4 mph
16:00 Fair 92°F (33.3°C) 102.17 kPa 10 miles 49% 70.1°F (21.1°C) 1 mph SE 125°3 mph
15:00 Fair 90°F (32.2°C) 102.24 kPa 10 miles 49% 68.2°F (20.1°C) 2 mph NE 42°4 mph
14:00 Fair 88°F (31.1°C) 102.24 kPa 10 miles 51% 67.6°F (19.8°C) 1 mph SE 135°4 mph
13:00 Fair 81°F (27.2°C) 102.37 kPa 7 miles 59% 65.3°F (18.5°C) 1 mph SE 126°2 mph
12:00 Fair 71°F (21.7°C) 102.44 kPa 10 miles 72% 61.5°F (16.4°C) 1 mph NE 52°4 mph
11:00 Fair 67°F (19.4°C) 102.47 kPa 10 miles 78% 59.9°F (15.5°C) 1 mph NNE 26°
10:00 Fair 62°F (16.7°C) 102.54 kPa 10 miles 86% 57.8°F (14.3°C) 1 mph NNE 28°2 mph
09:00 Fair 58°F (14.4°C) 102.54 kPa 10 miles 94% 56.3°F (13.5°C) 1 mph NNE 30°2 mph
08:00 Fair 55°F (12.8°C) 102.47 kPa 10 miles 96% 53.9°F (12.2°C) 1 mph NNE 14°2 mph